Time;durP1;ratioP1;P1;durP2;ratioP2;P2;SDS_P1;SDS_P2;PMS_P1;PMS_P2;Temp;Humidity;BMP_temperature;BMP_pressure;BME280_temperature;BME280_humidity;BME280_pressure;Samples;Min_cycle;Max_cycle;Signal;HPM_P1;HPM_P2
2022/01/15 00:00:11;;;;;;;4.43;2.80;;;;;;;2.21;86.09;91057.03;5091664;28;20035;-62
2022/01/15 00:02:37;;;;;;;3.60;2.78;;;;;;;2.09;87.61;91054.63;5091514;28;20027;-62
2022/01/15 00:05:02;;;;;;;4.40;2.70;;;;;;;2.17;87.80;91058.59;5091365;28;21109;-62
2022/01/15 00:07:28;;;;;;;3.88;2.60;;;;;;;2.17;89.11;91049.91;5073369;28;20107;-61
2022/01/15 00:09:53;;;;;;;5.03;2.80;;;;;;;2.15;89.07;91052.00;5091517;28;20482;-61
2022/01/15 00:12:19;;;;;;;3.55;2.30;;;;;;;2.01;91.25;91047.22;5091370;28;20035;-61
2022/01/15 00:14:45;;;;;;;4.40;2.75;;;;;;;2.04;90.59;91051.16;5091425;28;20032;-61
2022/01/15 00:17:32;;;;;;;7.82;3.40;;;;;;;1.98;92.14;91044.31;5091392;28;20031;-61
2022/01/15 00:20:00;;;;;;;4.68;2.90;;;;;;;1.95;93.83;91043.00;5091601;28;20028;-61
2022/01/15 00:22:25;;;;;;;8.90;3.95;;;;;;;1.98;96.15;91036.44;5091322;28;20016;-61
2022/01/15 00:24:51;;;;;;;5.88;3.80;;;;;;;1.88;97.03;91031.91;5091298;28;20028;-61
2022/01/15 00:27:16;;;;;;;4.20;2.75;;;;;;;2.01;96.02;91034.09;5091333;28;20030;-61
2022/01/15 00:29:42;;;;;;;4.78;2.72;;;;;;;1.98;96.55;91042.47;5091266;28;20410;-61
2022/01/15 00:32:08;;;;;;;4.65;2.80;;;;;;;1.91;95.95;91041.91;5090772;28;20119;-61
2022/01/15 00:34:34;;;;;;;4.65;2.90;;;;;;;1.85;96.87;91061.28;5091254;28;20024;-61
2022/01/15 00:37:00;;;;;;;4.28;2.75;;;;;;;1.72;98.43;91054.63;5091186;28;20506;-61
2022/01/15 00:39:27;;;;;;;5.50;3.08;;;;;;;1.76;98.60;91057.56;5091112;28;20028;-61
2022/01/15 00:41:53;;;;;;;7.32;2.78;;;;;;;1.82;99.00;91058.38;5091191;28;20024;-60
2022/01/15 00:44:18;;;;;;;8.40;2.83;;;;;;;1.72;99.12;91054.63;5091230;28;20127;-61
2022/01/15 00:46:44;;;;;;;5.65;2.97;;;;;;;1.87;99.21;91050.53;5091052;28;20505;-61
2022/01/15 00:49:10;;;;;;;5.03;2.90;;;;;;;1.91;100.00;91057.66;5091059;28;20028;-61
2022/01/15 00:51:36;;;;;;;4.57;2.70;;;;;;;1.95;100.00;91058.72;5233499;22;20162;-62
2022/01/15 00:54:02;;;;;;;5.80;2.90;;;;;;;1.85;100.00;91063.09;5091342;28;20400;-62
2022/01/15 00:56:28;;;;;;;4.13;2.90;;;;;;;1.79;100.00;91070.16;5091084;28;20048;-62
2022/01/15 00:58:55;;;;;;;7.38;3.03;;;;;;;1.91;100.00;91056.88;5090904;28;20071;-62
2022/01/15 01:01:21;;;;;;;4.50;2.80;;;;;;;2.10;100.00;91048.31;5090998;28;20028;-62
2022/01/15 01:03:48;;;;;;;3.72;2.42;;;;;;;2.06;100.00;91055.13;5090896;28;20048;-62
2022/01/15 01:06:14;;;;;;;4.32;2.80;;;;;;;1.96;100.00;91054.28;5090892;28;20024;-62
2022/01/15 01:08:40;;;;;;;3.50;2.58;;;;;;;1.98;100.00;91042.47;5090887;28;20028;-62
2022/01/15 01:11:12;;;;;;;5.20;2.70;;;;;;;2.06;100.00;91042.00;5090705;28;20089;-62
2022/01/15 01:24:24;;;;;;;4.90;2.92;;;;;;;1.89;100.00;91012.50;5091013;28;20500;-62
2022/01/15 01:31:58;;;;;;;5.97;3.45;;;;;;;2.01;100.00;91020.97;5090501;28;20053;-62
2022/01/15 01:34:26;;;;;;;3.47;2.60;;;;;;;2.00;100.00;91008.91;5090647;28;20470;-62
2022/01/15 01:39:22;;;;;;;4.80;3.08;;;;;;;2.13;100.00;91009.50;5090784;28;20043;-63
2022/01/15 01:42:04;;;;;;;4.82;3.00;;;;;;;2.13;100.00;91007.66;5090414;28;20111;-62
2022/01/15 01:44:30;;;;;;;4.80;2.87;;;;;;;2.24;100.00;90993.53;5093079;28;20032;-62
2022/01/15 01:47:03;;;;;;;2.75;2.35;;;;;;;2.27;100.00;91008.78;5094066;28;20032;-63
2022/01/15 01:49:29;;;;;;;3.60;2.38;;;;;;;2.19;100.00;91001.38;5094014;28;20070;-62
2022/01/15 01:51:54;;;;;;;3.70;2.47;;;;;;;2.23;100.00;91009.56;5093741;28;20090;-63
2022/01/15 01:54:20;;;;;;;4.57;2.72;;;;;;;2.12;100.00;91007.91;5093936;28;20020;-62
2022/01/15 01:56:47;;;;;;;4.20;2.90;;;;;;;1.96;100.00;91005.22;5093878;28;20032;-60
2022/01/15 01:59:16;;;;;;;3.20;2.80;;;;;;;1.87;100.00;90998.84;5093617;28;20117;-62
2022/01/15 02:01:41;;;;;;;5.00;2.90;;;;;;;1.90;100.00;91008.88;5093774;28;20062;-62
2022/01/15 02:04:07;;;;;;;3.92;3.10;;;;;;;1.86;100.00;91007.78;5093838;28;20023;-63
2022/01/15 02:06:35;;;;;;;4.90;2.95;;;;;;;1.96;100.00;91005.22;5093755;28;20473;-62
2022/01/15 02:09:05;;;;;;;5.65;2.95;;;;;;;1.97;100.00;91008.63;5093577;28;20026;-63
2022/01/15 02:11:30;;;;;;;4.25;3.00;;;;;;;1.93;100.00;91012.81;5093531;28;20123;-62
2022/01/15 02:13:56;;;;;;;5.30;2.97;;;;;;;1.82;100.00;91006.72;5093605;28;20099;-61
2022/01/15 02:16:22;;;;;;;5.18;2.83;;;;;;;1.96;100.00;90989.47;5093475;28;20409;-63
2022/01/15 02:18:55;;;;;;;5.55;3.10;;;;;;;2.09;100.00;90996.88;5093421;28;20026;-62
2022/01/15 02:23:50;;;;;;;3.97;2.67;;;;;;;2.04;100.00;91009.97;5093434;28;20035;-62
2022/01/15 02:26:26;;;;;;;3.85;2.78;;;;;;;2.23;100.00;91020.06;5093302;28;20433;-60
2022/01/15 02:28:55;;;;;;;4.15;2.72;;;;;;;2.44;100.00;91008.56;5093337;28;20020;-62
2022/01/15 02:31:22;;;;;;;4.07;2.72;;;;;;;2.42;100.00;91010.66;5093110;28;20028;-62
2022/01/15 02:33:50;;;;;;;3.40;2.75;;;;;;;2.51;100.00;91010.94;5093288;28;20505;-62
2022/01/15 02:36:24;;;;;;;6.60;2.92;;;;;;;2.48;100.00;91014.88;5093131;28;20432;-62
2022/01/15 02:38:51;;;;;;;5.28;2.90;;;;;;;2.39;100.00;91005.94;5093136;28;20024;-62
2022/01/15 02:41:38;;;;;;;5.63;3.30;;;;;;;2.32;100.00;91021.91;5092971;28;20165;-62
2022/01/15 02:44:06;;;;;;;4.32;3.30;;;;;;;2.34;100.00;91024.28;5093047;28;20020;-62
2022/01/15 02:49:03;;;;;;;4.57;3.30;;;;;;;1.99;100.00;91038.03;5093277;28;20492;-62
2022/01/15 02:51:32;;;;;;;5.68;3.00;;;;;;;1.93;100.00;91028.56;5092469;28;20557;-62
2022/01/15 02:53:58;;;;;;;6.25;3.28;;;;;;;1.88;100.00;91024.03;5092606;28;20028;-62
2022/01/15 02:56:38;;;;;;;5.22;2.90;;;;;;;1.86;100.00;91022.72;5092751;28;20035;-62
2022/01/15 02:59:16;;;;;;;5.43;3.65;;;;;;;1.76;100.00;91024.25;5092693;28;20402;-62
2022/01/15 03:01:41;;;;;;;5.43;3.17;;;;;;;1.74;100.00;91017.69;5092821;28;20397;-62
2022/01/15 03:04:07;;;;;;;4.93;3.40;;;;;;;1.89;100.00;91015.13;5092678;28;20099;-62
2022/01/15 03:06:33;;;;;;;5.03;3.75;;;;;;;1.97;100.00;91024.38;5092600;28;20485;-62
2022/01/15 03:08:58;;;;;;;3.80;2.90;;;;;;;1.86;100.00;91018.25;5092551;28;20035;-62
2022/01/15 03:11:24;;;;;;;6.00;3.20;;;;;;;1.81;100.00;91026.13;5092419;28;20028;-62
2022/01/15 03:13:50;;;;;;;5.65;3.20;;;;;;;1.79;100.00;91023.75;5092357;28;20106;-62
2022/01/15 03:16:18;;;;;;;5.72;3.17;;;;;;;1.79;100.00;91017.72;5074255;28;20032;-62
2022/01/15 03:18:44;;;;;;;4.43;3.13;;;;;;;1.91;100.00;91015.69;5092311;28;20020;-62
2022/01/15 03:21:10;;;;;;;4.68;3.15;;;;;;;1.94;100.00;91025.66;5092149;28;20042;-62
2022/01/15 03:23:35;;;;;;;3.85;3.20;;;;;;;1.85;100.00;91031.63;5092286;28;20032;-62
2022/01/15 03:26:01;;;;;;;4.72;2.80;;;;;;;1.83;100.00;91033.72;5092198;28;20036;-62
2022/01/15 03:28:26;;;;;;;5.25;3.40;;;;;;;2.02;100.00;91040.91;5092159;28;20374;-62
2022/01/15 03:30:52;;;;;;;4.60;3.10;;;;;;;2.10;100.00;91043.06;5091976;28;20043;-62
2022/01/15 03:33:18;;;;;;;5.88;3.50;;;;;;;2.14;100.00;91047.81;5091991;28;20024;-62
2022/01/15 03:35:43;;;;;;;4.20;3.05;;;;;;;2.19;100.00;91058.31;5092023;28;20032;-62
2022/01/15 03:38:09;;;;;;;4.35;3.13;;;;;;;2.15;100.00;91058.03;5091921;28;20024;-62
2022/01/15 03:40:35;;;;;;;5.00;3.15;;;;;;;2.09;100.00;91048.59;5091982;28;20032;-62
2022/01/15 03:43:02;;;;;;;5.97;3.70;;;;;;;2.10;100.00;91056.19;5091764;28;20016;-62
2022/01/15 03:45:28;;;;;;;4.95;3.28;;;;;;;2.08;100.00;91060.91;5091910;28;20059;-62
2022/01/15 03:47:56;;;;;;;5.10;3.13;;;;;;;2.06;100.00;91049.88;5091794;28;20523;-62
2022/01/15 03:50:24;;;;;;;5.57;3.22;;;;;;;1.99;100.00;91065.03;5091763;28;20074;-62
2022/01/15 03:52:50;;;;;;;5.28;3.80;;;;;;;2.00;100.00;91060.59;5091473;28;20044;-62
2022/01/15 03:55:15;;;;;;;5.60;3.65;;;;;;;2.06;100.00;91051.72;5091687;28;20056;-63
2022/01/15 03:57:41;;;;;;;4.78;3.58;;;;;;;1.98;100.00;91052.19;5091609;28;20200;-63
2022/01/15 04:00:09;;;;;;;5.65;3.75;;;;;;;1.91;100.00;91051.63;5091642;28;20031;-62
2022/01/15 04:02:35;;;;;;;5.15;3.70;;;;;;;2.01;100.00;91057.72;5091450;28;20486;-62
2022/01/15 04:05:00;;;;;;;5.63;3.20;;;;;;;2.05;100.00;91061.41;5091517;28;20028;-62
2022/01/15 04:07:26;;;;;;;5.15;3.72;;;;;;;1.99;100.00;91059.78;5090882;28;20070;-62
2022/01/15 04:09:51;;;;;;;56.15;24.20;;;;;;;2.02;100.00;91054.03;5091414;28;20028;-63
2022/01/15 04:12:17;;;;;;;26.48;12.63;;;;;;;2.00;100.00;91071.88;5091361;28;20055;-62
2022/01/15 04:14:42;;;;;;;77.43;35.53;;;;;;;1.96;100.00;91070.81;5091405;28;20024;-62
2022/01/15 04:17:08;;;;;;;13.13;8.05;;;;;;;2.00;100.00;91071.88;5091622;28;20111;-62
2022/01/15 04:19:35;;;;;;;8.50;5.05;;;;;;;2.05;100.00;91069.28;5091332;28;20478;-62
2022/01/15 04:22:01;;;;;;;7.25;4.70;;;;;;;2.01;100.00;91062.94;5091124;28;20032;-62
2022/01/15 04:24:26;;;;;;;6.95;4.35;;;;;;;1.94;100.00;91062.41;5091328;28;20024;-62
2022/01/15 04:26:52;;;;;;;6.63;4.45;;;;;;;1.95;100.00;91063.19;5091250;28;20478;-62
2022/01/15 04:29:17;;;;;;;8.63;5.30;;;;;;;1.99;100.00;91059.78;5090976;28;20106;-63
2022/01/15 04:31:50;;;;;;;5.55;3.80;;;;;;;1.97;100.00;91059.25;5091090;28;20144;-62
2022/01/15 04:34:27;;;;;;;5.05;3.53;;;;;;;1.93;100.00;91070.53;5091240;28;20020;-62
2022/01/15 04:37:00;;;;;;;5.05;3.50;;;;;;;1.86;100.00;91080.44;5091104;28;20089;-62
2022/01/15 04:39:25;;;;;;;6.15;3.70;;;;;;;1.75;100.00;91082.22;5091091;28;20028;-62
2022/01/15 04:41:51;;;;;;;7.68;4.28;;;;;;;1.68;100.00;91089.47;5090992;28;20097;-62
2022/01/15 04:44:17;;;;;;;8.80;4.80;;;;;;;1.64;100.00;91083.94;5091160;28;20024;-62
2022/01/15 04:46:42;;;;;;;4.35;3.22;;;;;;;1.68;100.00;91087.66;5091294;28;20184;-62
2022/01/15 04:49:08;;;;;;;6.28;4.13;;;;;;;1.81;100.00;91096.94;5091021;28;20024;-62
2022/01/15 04:51:34;;;;;;;6.47;4.85;;;;;;;1.75;100.00;91080.38;5090790;28;20059;-62
2022/01/15 04:54:00;;;;;;;5.20;3.65;;;;;;;1.84;100.00;91099.03;5091629;28;20028;-62
2022/01/15 04:56:25;;;;;;;4.65;3.30;;;;;;;1.75;100.00;91096.09;5091031;28;20020;-62
2022/01/15 04:58:51;;;;;;;5.88;3.50;;;;;;;1.78;100.00;91105.31;5090963;28;20016;-62
2022/01/15 05:01:17;;;;;;;6.57;3.75;;;;;;;1.83;100.00;91102.72;5090802;28;20101;-62
2022/01/15 05:03:42;;;;;;;5.57;3.53;;;;;;;1.80;100.00;91101.38;5091042;28;20550;-62
2022/01/15 05:06:08;;;;;;;7.18;4.00;;;;;;;1.81;100.00;91102.16;5090926;28;20024;-62
2022/01/15 05:08:33;;;;;;;6.35;4.07;;;;;;;1.78;100.00;91105.31;5090999;28;20042;-62
2022/01/15 05:11:10;;;;;;;4.75;3.55;;;;;;;1.60;100.00;91108.31;5090889;28;20035;-62
2022/01/15 05:13:36;;;;;;;4.22;3.20;;;;;;;1.47;100.00;91107.69;5090802;28;20480;-62
2022/01/15 05:16:02;;;;;;;6.22;4.35;;;;;;;1.57;100.00;91120.06;5090755;28;20028;-62
2022/01/15 05:18:27;;;;;;;4.30;3.40;;;;;;;1.66;100.00;91123.81;5093371;28;20157;-62
2022/01/15 05:20:53;;;;;;;6.07;4.30;;;;;;;1.60;100.00;91118.81;5094581;28;20024;-62
2022/01/15 05:23:18;;;;;;;5.78;3.40;;;;;;;1.51;100.00;91113.22;5094859;28;20408;-62
2022/01/15 05:25:44;;;;;;;6.47;4.50;;;;;;;1.57;100.00;91119.28;5094651;28;20541;-62
2022/01/15 05:28:09;;;;;;;7.53;4.05;;;;;;;1.49;100.00;91121.31;5094884;28;20043;-62
2022/01/15 05:30:35;;;;;;;6.38;4.10;;;;;;;1.48;100.00;91132.06;5094530;28;20498;-62
2022/01/15 05:33:01;;;;;;;8.00;3.85;;;;;;;1.45;100.00;91129.94;5094636;28;20028;-62
2022/01/15 05:35:27;;;;;;;6.60;3.80;;;;;;;1.41;100.00;91134.88;5076337;28;20486;-62
2022/01/15 05:37:57;;;;;;;5.93;3.92;;;;;;;1.42;100.00;91131.22;5094367;28;20515;-62
2022/01/15 05:40:23;;;;;;;5.93;4.50;;;;;;;1.39;100.00;91134.31;5094274;28;20485;-63
2022/01/15 05:42:49;;;;;;;4.50;3.60;;;;;;;1.41;100.00;91137.50;5094223;28;20043;-63
2022/01/15 05:45:15;;;;;;;6.93;3.88;;;;;;;1.44;100.00;91139.63;5094202;28;20036;-62
2022/01/15 05:47:40;;;;;;;9.98;5.00;;;;;;;1.47;100.00;91140.97;5094262;28;20063;-63
2022/01/15 05:50:07;;;;;;;5.85;4.55;;;;;;;1.48;100.00;91145.97;5094214;28;20078;-63
2022/01/15 05:52:32;;;;;;;7.03;4.60;;;;;;;1.43;100.00;91153.78;5093911;28;20051;-63
2022/01/15 05:54:58;;;;;;;8.73;5.25;;;;;;;1.40;100.00;91151.63;5094088;28;20028;-62
2022/01/15 05:57:24;;;;;;;6.75;4.32;;;;;;;1.42;100.00;91148.75;5094039;28;20103;-62
2022/01/15 05:59:51;;;;;;;7.78;4.82;;;;;;;1.43;100.00;91151.16;5093953;28;20023;-61
2022/01/15 06:02:18;;;;;;;7.72;4.50;;;;;;;1.40;100.00;91146.38;5093842;28;20039;-61
2022/01/15 06:04:44;;;;;;;7.28;5.05;;;;;;;1.48;100.00;91148.56;5093850;28;20055;-61
2022/01/15 06:07:09;;;;;;;9.10;4.97;;;;;;;1.43;100.00;91150.38;5093781;28;20074;-62
2022/01/15 06:09:35;;;;;;;8.38;5.07;;;;;;;1.42;100.00;91154.81;5093790;28;20031;-62
2022/01/15 06:12:01;;;;;;;6.85;4.60;;;;;;;1.49;100.00;91160.66;5093619;28;20032;-62
2022/01/15 06:14:28;;;;;;;7.35;4.50;;;;;;;1.48;100.00;91163.50;5093612;28;20144;-62
2022/01/15 06:16:53;;;;;;;6.65;4.53;;;;;;;1.56;100.00;91167.50;5093646;28;20032;-62
2022/01/15 06:19:19;;;;;;;7.28;4.78;;;;;;;1.59;100.00;91174.91;5093501;28;20453;-62
2022/01/15 06:21:44;;;;;;;7.53;4.65;;;;;;;1.59;100.00;91180.94;5093448;28;20081;-62
2022/01/15 06:24:10;;;;;;;7.50;4.50;;;;;;;1.69;100.00;91191.50;5093537;28;20036;-63
2022/01/15 06:26:35;;;;;;;7.88;5.25;;;;;;;1.66;100.00;91197.25;5093496;28;20130;-62
2022/01/15 06:29:01;;;;;;;10.85;5.70;;;;;;;1.66;100.00;91209.56;5092369;28;20040;-63
2022/01/15 06:31:28;;;;;;;8.88;5.15;;;;;;;1.67;100.00;91206.69;5090079;28;20032;-62
2022/01/15 06:33:53;;;;;;;8.07;5.32;;;;;;;1.61;100.00;91199.03;5089415;28;20024;-63
2022/01/15 06:36:19;;;;;;;8.68;5.82;;;;;;;1.61;100.00;91202.44;5093188;28;20039;-63
2022/01/15 06:38:44;;;;;;;9.10;5.65;;;;;;;1.57;100.00;91201.34;5093036;28;20032;-63
2022/01/15 06:41:10;;;;;;;9.43;5.82;;;;;;;1.50;100.00;91200.75;5092995;28;20073;-63
2022/01/15 06:43:35;;;;;;;8.80;5.38;;;;;;;1.48;100.00;91201.00;5092541;28;20034;-64
2022/01/15 06:46:01;;;;;;;9.65;5.55;;;;;;;1.55;100.00;91206.03;5093002;28;20501;-64
2022/01/15 06:48:28;;;;;;;7.82;5.35;;;;;;;1.64;100.00;91203.78;5092932;28;20039;-63
2022/01/15 06:50:54;;;;;;;14.32;8.63;;;;;;;1.74;100.00;91203.88;5092768;28;20504;-63
2022/01/15 06:53:29;;;;;;;11.45;7.10;;;;;;;1.60;100.00;91203.50;5092630;28;20134;-63
2022/01/15 06:55:55;;;;;;;23.02;13.27;;;;;;;1.69;100.00;91216.94;5092518;28;20711;-63
2022/01/15 06:58:25;;;;;;;12.32;6.93;;;;;;;1.63;100.00;91220.56;5092677;28;20081;-63
2022/01/15 07:00:51;;;;;;;10.20;6.70;;;;;;;1.63;100.00;91223.19;5092646;28;20027;-63
2022/01/15 07:03:17;;;;;;;9.18;6.03;;;;;;;1.72;100.00;91224.31;5092548;28;20076;-62
2022/01/15 07:05:43;;;;;;;14.80;7.10;;;;;;;1.84;100.00;91224.94;5092399;28;20020;-62
2022/01/15 07:08:08;;;;;;;7.88;5.53;;;;;;;1.78;100.00;91228.56;5092149;28;20409;-63
2022/01/15 07:10:38;;;;;;;10.30;6.03;;;;;;;1.82;100.00;91234.91;5092163;28;20031;-62
2022/01/15 07:13:07;;;;;;;10.00;5.85;;;;;;;1.81;100.00;91225.44;5092327;28;20474;-62
2022/01/15 07:15:34;;;;;;;8.15;5.78;;;;;;;1.94;100.00;91230.28;5092178;28;20028;-62
2022/01/15 07:17:59;;;;;;;9.57;5.70;;;;;;;1.96;100.00;91233.47;5092222;28;20023;-62
2022/01/15 07:20:26;;;;;;;9.73;6.00;;;;;;;1.98;100.00;91231.38;5091997;28;20032;-62
2022/01/15 07:22:52;;;;;;;16.40;8.27;;;;;;;2.02;100.00;91224.56;5073126;28;20127;-62
2022/01/15 07:25:17;;;;;;;13.70;7.60;;;;;;;2.10;100.00;91218.09;5092156;28;20028;-63
2022/01/15 07:27:43;;;;;;;13.73;8.93;;;;;;;2.00;100.00;91229.28;5092020;28;20043;-63
2022/01/15 07:30:11;;;;;;;11.52;7.40;;;;;;;2.10;100.00;91239.88;5092019;28;20497;-63
2022/01/15 07:32:39;;;;;;;17.92;11.13;;;;;;;2.04;100.00;91238.25;5091714;28;20028;-62
2022/01/15 07:35:05;;;;;;;27.42;12.55;;;;;;;2.17;100.00;91244.13;5091989;28;20034;-63
2022/01/15 07:37:31;;;;;;;16.67;8.60;;;;;;;2.20;100.00;91243.63;5091855;28;20028;-63
2022/01/15 07:39:58;;;;;;;16.15;9.15;;;;;;;2.35;100.00;91241.13;5091867;28;20016;-63
2022/01/15 07:42:23;;;;;;;18.45;9.70;;;;;;;2.36;100.00;91248.72;5090910;28;20111;-62
2022/01/15 07:44:49;;;;;;;16.75;9.32;;;;;;;2.38;100.00;91251.13;5073458;28;20304;-63
2022/01/15 07:47:15;;;;;;;14.68;8.32;;;;;;;2.35;100.00;91254.25;5091817;28;20028;-62
2022/01/15 07:49:40;;;;;;;11.48;6.68;;;;;;;2.34;100.00;91248.19;5091614;28;20590;-62
2022/01/15 07:52:06;;;;;;;9.50;6.72;;;;;;;2.38;100.00;91243.25;5091447;28;20042;-63
2022/01/15 07:54:31;;;;;;;32.20;17.38;;;;;;;2.37;100.00;91258.22;5091694;28;20107;-63
2022/01/15 07:56:58;;;;;;;10.73;5.72;;;;;;;2.36;100.00;91261.88;5091432;28;20497;-62
2022/01/15 07:59:25;;;;;;;12.48;6.53;;;;;;;2.36;100.00;91263.69;5091310;28;20039;-62
2022/01/15 08:01:50;;;;;;;13.88;6.93;;;;;;;2.29;100.00;91273.63;5110398;28;20035;-63
2022/01/15 08:04:16;;;;;;;21.98;10.80;;;;;;;2.29;100.00;91268.38;5111699;28;20084;-62
2022/01/15 08:06:42;;;;;;;17.98;10.07;;;;;;;2.33;100.00;91285.19;5111604;28;20031;-62
2022/01/15 08:09:08;;;;;;;18.70;11.02;;;;;;;2.25;100.00;91280.44;5110786;28;20031;-65
2022/01/15 08:11:34;;;;;;;10.52;7.63;;;;;;;2.46;100.00;91290.03;5082173;28;20039;-63
2022/01/15 08:14:00;;;;;;;15.43;7.53;;;;;;;2.56;99.05;91298.00;5091265;28;20035;-63
2022/01/15 08:16:25;;;;;;;15.65;8.77;;;;;;;2.68;98.54;91292.56;5089177;28;20032;-63
2022/01/15 08:18:51;;;;;;;17.77;9.85;;;;;;;2.65;99.52;91296.50;5091093;28;20032;-62
2022/01/15 08:21:16;;;;;;;20.45;13.65;;;;;;;2.92;98.14;91296.41;5084563;28;20110;-63
2022/01/15 08:23:42;;;;;;;20.90;14.65;;;;;;;2.98;95.63;91290.13;5070890;28;20051;-63
2022/01/15 08:26:08;;;;;;;16.80;10.38;;;;;;;3.03;95.54;91288.63;5070943;28;20474;-64
2022/01/15 08:28:34;;;;;;;46.97;30.52;;;;;;;3.20;94.00;91300.53;5073633;28;20040;-62
2022/01/15 08:30:59;;;;;;;15.63;8.43;;;;;;;3.11;94.43;91301.25;5070987;28;20032;-62
2022/01/15 08:33:25;;;;;;;23.75;13.30;;;;;;;2.99;94.41;91298.81;5070530;28;20486;-62
2022/01/15 08:35:51;;;;;;;27.88;18.35;;;;;;;2.78;96.31;91302.38;5070700;28;20021;-62
2022/01/15 08:38:16;;;;;;;113.43;61.83;;;;;;;3.02;97.15;91300.97;5070618;28;20052;-62
2022/01/15 08:40:42;;;;;;;18.15;11.90;;;;;;;2.98;95.34;91308.53;5070548;28;20017;-62
2022/01/15 08:43:08;;;;;;;14.07;8.70;;;;;;;2.81;94.46;91305.28;5070669;28;20032;-62
2022/01/15 08:45:35;;;;;;;13.30;8.20;;;;;;;2.98;96.01;91313.00;5070447;28;20506;-64
2022/01/15 08:48:00;;;;;;;11.43;6.90;;;;;;;3.04;94.09;91298.88;5054682;28;20378;-65
2022/01/15 08:50:26;;;;;;;16.05;10.00;;;;;;;3.13;92.73;91302.59;5081469;28;20035;-65
2022/01/15 08:52:52;;;;;;;19.38;10.40;;;;;;;3.33;91.91;91303.78;5072058;28;20548;-63
2022/01/15 08:55:19;;;;;;;11.50;7.20;;;;;;;3.39;90.82;91297.47;5074744;28;20402;-63
2022/01/15 08:57:45;;;;;;;73.53;37.80;;;;;;;3.48;90.41;91312.53;5074550;28;20037;-64
2022/01/15 09:00:15;;;;;;;20.88;10.10;;;;;;;3.51;90.38;91295.44;5074295;28;20029;-64
2022/01/15 09:02:41;;;;;;;23.85;13.43;;;;;;;3.56;89.84;91309.38;5056699;28;20429;-63
2022/01/15 09:05:07;;;;;;;33.45;18.15;;;;;;;3.37;90.51;91326.66;5074530;28;20032;-62
2022/01/15 09:07:32;;;;;;;28.10;16.02;;;;;;;3.35;91.00;91322.72;5074548;28;20478;-63
2022/01/15 09:09:58;;;;;;;32.97;20.52;;;;;;;3.06;93.50;91323.06;5074490;28;20486;-63
2022/01/15 09:12:23;;;;;;;19.35;11.68;;;;;;;3.02;95.59;91331.72;5074027;28;20020;-63
2022/01/15 09:14:52;;;;;;;25.15;14.45;;;;;;;2.90;96.19;91337.13;5074397;28;20024;-63
2022/01/15 09:17:18;;;;;;;33.50;19.05;;;;;;;2.70;97.48;91335.94;5074246;28;20036;-63
2022/01/15 09:19:44;;;;;;;20.40;11.90;;;;;;;2.74;99.66;91332.81;5056290;28;20454;-63
2022/01/15 09:22:11;;;;;;;23.65;13.43;;;;;;;2.84;99.42;91328.44;5074267;28;20043;-63
2022/01/15 09:24:37;;;;;;;17.85;9.82;;;;;;;2.88;99.84;91331.34;5073854;28;20024;-63
2022/01/15 09:30:12;;;;;;;15.23;9.50;;;;;;;2.97;100.00;91340.31;5074108;28;20032;-63
2022/01/15 09:32:33;;;;;;;25.73;15.77;;;;;;;3.00;99.67;91343.28;5073771;28;20055;-62
2022/01/15 09:34:59;;;;;;;34.80;19.13;;;;;;;2.97;99.75;91321.94;5070237;28;20490;-62
2022/01/15 09:37:24;;;;;;;35.67;17.98;;;;;;;2.89;100.00;91335.56;5073163;28;20108;-63
2022/01/15 09:39:50;;;;;;;20.20;12.57;;;;;;;3.04;100.00;91335.66;5073552;28;20536;-63
2022/01/15 09:42:16;;;;;;;26.42;16.38;;;;;;;3.10;99.34;91333.84;5073676;28;20526;-63
2022/01/15 09:44:43;;;;;;;22.17;14.27;;;;;;;2.95;100.00;91332.69;5073861;28;20112;-63
2022/01/15 09:47:12;;;;;;;42.92;26.23;;;;;;;3.04;100.00;91334.88;5073001;28;20033;-64
2022/01/15 09:49:41;;;;;;;36.80;20.55;;;;;;;3.36;98.92;91337.44;5072960;28;20025;-63
2022/01/15 09:52:07;;;;;;;31.70;17.70;;;;;;;3.44;95.60;91321.94;5073187;28;20037;-64
2022/01/15 09:54:33;;;;;;;26.40;16.23;;;;;;;3.36;95.30;91319.03;5073403;28;20043;-63
2022/01/15 09:56:59;;;;;;;29.48;16.25;;;;;;;3.57;94.36;91332.00;5073345;28;20561;-63
2022/01/15 09:59:24;;;;;;;24.55;14.13;;;;;;;3.44;94.60;91323.78;5073241;28;20158;-63
2022/01/15 10:01:50;;;;;;;17.63;10.98;;;;;;;3.39;95.50;91324.56;5072485;28;20041;-63
2022/01/15 10:04:16;;;;;;;15.93;9.10;;;;;;;3.52;94.71;91323.31;5054043;28;20039;-63
2022/01/15 10:07:07;;;;;;;16.60;9.75;;;;;;;3.62;93.08;91325.97;5073009;28;20029;-64
2022/01/15 10:09:34;;;;;;;19.50;12.98;;;;;;;3.69;91.93;91326.56;5072873;28;20025;-64
2022/01/15 10:11:59;;;;;;;12.93;8.85;;;;;;;3.53;89.88;91335.41;5073048;28;20035;-64
2022/01/15 10:14:30;;;;;;;15.32;10.38;;;;;;;3.57;90.69;91326.75;5072830;28;20037;-64
2022/01/15 10:16:58;;;;;;;13.63;9.02;;;;;;;3.71;89.65;91323.66;5073011;28;20032;-64
2022/01/15 10:19:34;;;;;;;18.05;10.55;;;;;;;3.73;89.46;91319.72;5072964;28;20037;-64
2022/01/15 10:22:11;;;;;;;16.75;11.13;;;;;;;5.54;81.59;91323.81;5055047;28;20032;-65
2022/01/15 10:24:42;;;;;;;21.25;13.90;;;;;;;7.89;66.65;91319.31;5073082;28;20410;-64
2022/01/15 10:27:29;;;;;;;17.10;11.30;;;;;;;7.37;66.37;91328.84;5072313;28;20021;-63
2022/01/15 10:30:15;;;;;;;17.45;11.27;;;;;;;6.16;69.76;91331.28;5106805;28;20118;-63
2022/01/15 10:33:09;;;;;;;22.98;14.50;;;;;;;6.57;70.18;91333.69;5106326;28;20059;-64
2022/01/15 10:35:40;;;;;;;47.45;31.63;;;;;;;7.15;66.69;91339.09;5075774;28;20162;-62
2022/01/15 10:38:16;;;;;;;11.95;7.65;;;;;;;6.34;68.36;91337.00;5093023;28;20434;-64
2022/01/15 10:40:51;;;;;;;27.55;16.52;;;;;;;5.88;69.84;91339.81;5092903;28;20108;-63
2022/01/15 10:43:18;;;;;;;13.63;8.57;;;;;;;5.68;69.94;91320.34;5093081;28;20119;-63
2022/01/15 10:45:51;;;;;;;75.15;43.17;;;;;;;6.84;68.47;91334.03;5092802;28;20095;-64
2022/01/15 10:48:25;;;;;;;25.58;15.18;;;;;;;7.11;65.58;91330.94;5092290;28;20028;-64
2022/01/15 10:51:05;;;;;;;25.42;16.75;;;;;;;6.63;67.42;91332.59;5089894;28;20410;-64
2022/01/15 10:53:34;;;;;;;12.65;7.85;;;;;;;7.05;66.16;91318.00;5108920;28;20181;-64
2022/01/15 10:56:01;;;;;;;46.53;28.83;;;;;;;8.10;65.01;91315.34;5094516;28;20126;-63
2022/01/15 10:58:27;;;;;;;12.93;7.65;;;;;;;8.28;61.59;91326.28;5112282;28;20084;-63
2022/01/15 11:00:53;;;;;;;11.05;7.70;;;;;;;10.80;55.89;91321.47;5112549;28;20027;-63
2022/01/15 11:03:19;;;;;;;16.98;11.60;;;;;;;11.42;52.75;91324.31;5112076;28;20062;-63
2022/01/15 11:05:47;;;;;;;234.90;124.70;;;;;;;11.59;50.97;91316.44;5111418;28;20058;-63
2022/01/15 11:08:36;;;;;;;23.65;16.45;;;;;;;10.86;51.90;91320.25;5112794;28;20024;-65
2022/01/15 11:11:11;;;;;;;22.10;15.88;;;;;;;9.35;55.13;91317.59;5100153;28;20134;-64
2022/01/15 11:13:39;;;;;;;19.45;13.85;;;;;;;9.60;54.46;91306.50;5083372;28;20048;-64
2022/01/15 11:16:08;;;;;;;22.05;15.25;;;;;;;10.80;52.66;91321.47;5071783;28;20036;-65
2022/01/15 11:18:40;;;;;;;32.53;20.90;;;;;;;10.77;52.56;91314.09;5072050;28;20394;-65
2022/01/15 11:21:14;;;;;;;17.00;12.10;;;;;;;10.29;53.52;91314.56;5072100;28;20036;-63
2022/01/15 11:23:43;;;;;;;15.40;9.07;;;;;;;11.16;51.08;91308.13;5072020;28;20487;-61
2022/01/15 11:26:16;;;;;;;19.38;9.27;;;;;;;11.93;49.10;91312.41;5071920;28;20111;-63
2022/01/15 11:28:43;;;;;;;19.77;12.82;;;;;;;10.03;53.66;91308.13;5071930;28;20035;-62
2022/01/15 11:31:28;;;;;;;14.38;10.25;;;;;;;12.36;50.04;91301.13;5071676;28;20023;-62
2022/01/15 11:33:55;;;;;;;19.50;14.60;;;;;;;12.78;48.18;91307.63;5071831;28;20037;-62
2022/01/15 11:36:32;;;;;;;10.55;7.90;;;;;;;13.33;46.92;91302.50;5071553;28;20506;-62
2022/01/15 11:39:00;;;;;;;12.25;8.07;;;;;;;12.28;48.28;91298.09;5071739;28;20016;-62
2022/01/15 11:41:26;;;;;;;12.90;9.23;;;;;;;12.20;48.29;91300.75;5071593;28;20037;-62
2022/01/15 11:44:02;;;;;;;20.65;12.52;;;;;;;11.52;49.14;91292.09;5071734;28;20032;-62
2022/01/15 11:46:40;;;;;;;18.17;11.82;;;;;;;12.07;49.32;91297.09;5071722;28;20104;-62
2022/01/15 11:49:49;;;;;;;29.15;19.60;;;;;;;13.52;46.22;91299.50;5071610;28;20060;-63
2022/01/15 11:52:14;;;;;;;18.55;10.98;;;;;;;12.80;47.20;91300.13;5061575;28;20053;-63
2022/01/15 11:54:49;;;;;;;17.52;11.73;;;;;;;13.64;44.51;91301.53;5071491;28;20048;-63
2022/01/15 11:57:23;;;;;;;15.02;8.90;;;;;;;12.57;46.65;91291.44;5071561;28;20043;-63